WetterOnline ( https://www.wetteronline.de )

Wetter aktuell Weilheim

Aktuelles Wetter: Hohenpeißenberg (986m)

6-stündlich | Neueste Meldungen
Ortszeit Temperatur Wetter
Sa, 08.05. 20:00 13.4° C bedeckt
Sa, 08.05. 14:00 14.2° C leicht bewölkt
Sa, 08.05. 8:00 5.2° C leicht bewölkt
Sa, 08.05. 2:00 3.7° C wolkenlos
Fr, 07.05. 20:00 3.9° C Sprühregen
Fr, 07.05. 14:00 2.5° C leichter Regen
Fr, 07.05. 8:00 3.5° C leichter Regen
Fr, 07.05. 2:00 5.3° C bedeckt
Ortszeit Temperatur Wetter
So, 09.05. 1:30 11.3° C fast wolkenlos
So, 09.05. 1:20 11.3° C fast wolkenlos
So, 09.05. 1:10 10.9° C wolkenlos
So, 09.05. 1:00 11.5° C fast wolkenlos
So, 09.05. 0:50 11.5° C fast wolkenlos
So, 09.05. 0:40 11.4° C leicht bewölkt
So, 09.05. 0:30 12.3° C fast wolkenlos
So, 09.05. 0:00 12.8° C fast wolkenlos
Sa, 08.05. 23:30 12.4° C fast wolkenlos
Sa, 08.05. 23:00 12.6° C leicht bewölkt
Sa, 08.05. 22:30 12.9° C fast wolkenlos
Ortszeit Relative Feuchte Sichtweite
Sa, 08.05. 20:00 41% >70 km
Sa, 08.05. 14:00 46% >70 km
Sa, 08.05. 8:00 58% >70 km
Sa, 08.05. 2:00 73% 65 km
Fr, 07.05. 20:00 84% 55 km
Fr, 07.05. 14:00 100% 100 m
Fr, 07.05. 8:00 99% 9 km
Fr, 07.05. 2:00 92% 50 km
Ortszeit Relative Feuchte Sichtweite
So, 09.05. 1:30 50% >70 km
So, 09.05. 1:20 50% -
So, 09.05. 1:10 53% -
So, 09.05. 1:00 52% >70 km
So, 09.05. 0:50 52% -
So, 09.05. 0:40 51% -
So, 09.05. 0:30 44% >70 km
So, 09.05. 0:00 42% >70 km
Sa, 08.05. 23:30 44% >70 km
Sa, 08.05. 23:00 44% >70 km
Sa, 08.05. 22:30 43% >70 km
Ortszeit Niederschlagsmenge Niederschlagsart
Sa, 08.05. 20:00 0.0 l/m2 in 12 Std. -
Sa, 08.05. 14:00 0.0 l/m2 in 6 Std. -
Sa, 08.05. 8:00 0.1 l/m2 in 12 Std. -
Sa, 08.05. 2:00 0.1 l/m2 in 6 Std. Schnee, Regen
Fr, 07.05. 20:00 6 l/m2 in 12 Std. Schnee, Regen
Fr, 07.05. 14:00 5 l/m2 in 6 Std. Schnee, Regen
Fr, 07.05. 8:00 2 l/m2 in 12 Std. Regen
Fr, 07.05. 2:00 2 l/m2 in 6 Std. Regen
Ortszeit Niederschlagsmenge Niederschlagsart
So, 09.05. 1:30 0.0 l/m2 in 1 Std. -
So, 09.05. 1:20 keine Meldung -
So, 09.05. 1:10 keine Meldung -
So, 09.05. 1:00 0.0 l/m2 in 1 Std. -
So, 09.05. 0:50 keine Meldung -
So, 09.05. 0:40 keine Meldung -
So, 09.05. 0:30 0.0 l/m2 in 1 Std. -
So, 09.05. 0:00 0.0 l/m2 in 1 Std. -
Sa, 08.05. 23:30 0.0 l/m2 in 1 Std. -
Sa, 08.05. 23:00 0.0 l/m2 in 1 Std. -
Sa, 08.05. 22:30 0.0 l/m2 in 1 Std. -
Ortszeit Stärke Spitze Richtung
km/h Bft. km/h Grad Sektor
Sa, 08.05. 20:00 9 2 24 120° SO
Sa, 08.05. 14:00 7 2 29 250° W
Sa, 08.05. 8:00 11 2 20 140° SO
Sa, 08.05. 2:00 6 1 26 290° W
Fr, 07.05. 20:00 14 3 47 250° W
Fr, 07.05. 14:00 18 3 72 250° W
Fr, 07.05. 8:00 28 4 76 250° W
Fr, 07.05. 2:00 28 4 76 260° W
Ortszeit Stärke Spitze Richtung
km/h Bft. km/h Grad Sektor
So, 09.05. 1:30 14 3 18 180° S
So, 09.05. 1:20 14 3 - 180° S
So, 09.05. 1:10 11 2 - 180° S
So, 09.05. 1:00 11 2 14 170° S
So, 09.05. 0:50 11 2 - 170° S
So, 09.05. 0:40 11 2 - 180° S
So, 09.05. 0:30 9 2 11 170° S
So, 09.05. 0:00 9 2 13 160° S
Sa, 08.05. 23:30 9 2 13 140° SO
Sa, 08.05. 23:00 11 2 14 140° SO
Sa, 08.05. 22:30 11 2 14 120° SO
Ortszeit Untergrenze Bedeckung Gattung
total tief tief mittel hoch
Sa, 08.05. 20:00 2100 m 8/8 8/8 - - -
Sa, 08.05. 14:00 10500 m 3/8 0/8 - - -
Sa, 08.05. 8:00 8100 m 7/8 0/8 - - -
Sa, 08.05. 2:00 - 0/8 0/8 - - -
Fr, 07.05. 20:00 1140 m 8/8 8/8 - - -
Fr, 07.05. 14:00 <30 m 7/8 0/8 - - -
Fr, 07.05. 8:00 180 m 7/8 7/8 - - -
Fr, 07.05. 2:00 300 m 8/8 8/8 - - -
Ortszeit Bedeckungsgrad in Achtel und Wolkenuntergrenze
So, 09.05. 1:30 2(9000m)
So, 09.05. 1:20 2(9000m)
So, 09.05. 1:10 keine Wolken
So, 09.05. 1:00 2(10500m)
So, 09.05. 0:50 2(10500m)
So, 09.05. 0:40 4(10500m)
So, 09.05. 0:30 1(10500m)
So, 09.05. 0:00 1(8700m)
Sa, 08.05. 23:30 1(8700m) 2(10500m)
Sa, 08.05. 23:00 2(9000m) 3(10500m)
Sa, 08.05. 22:30 1(9000m) 2(9000m)
Ortszeit Stationsdruck (hPa) Tendenz (hPa in 3 Std.)
Sa, 08.05. 20:00 903 - 0,7
Sa, 08.05. 14:00 905 - 0,7
Sa, 08.05. 8:00 906 - 0,2
Sa, 08.05. 2:00 907 + 0,4
Fr, 07.05. 20:00 905 + 1,6
Fr, 07.05. 14:00 901 + 3,0
Fr, 07.05. 8:00 897 + 1,4
Fr, 07.05. 2:00 896 + 1,3
Ortszeit Stationsdruck (hPa) Tendenz (hPa in 3 Std.)
So, 09.05. 1:30 903 0,0
So, 09.05. 1:20 903 keine Meldung
So, 09.05. 1:10 903 keine Meldung
So, 09.05. 1:00 903 + 0,1
So, 09.05. 0:50 903 keine Meldung
So, 09.05. 0:40 903 keine Meldung
So, 09.05. 0:30 903 + 0,2
So, 09.05. 0:00 903 0,0
Sa, 08.05. 23:30 903 + 0,2
Sa, 08.05. 23:00 903 + 0,1
Sa, 08.05. 22:30 903 0,0
Ortszeit Schneehöhe (cm)
Sa, 08.05. 20:00 0
Sa, 08.05. 14:00 0
Sa, 08.05. 8:00 0
Sa, 08.05. 2:00 0
Fr, 07.05. 20:00 0
Fr, 07.05. 14:00 0
Fr, 07.05. 8:00 0
Fr, 07.05. 2:00 0
Ortszeit Schneehöhe (cm)
So, 09.05. 1:30 0
So, 09.05. 1:20 0
So, 09.05. 1:10 0
So, 09.05. 1:00 0
So, 09.05. 0:50 0
So, 09.05. 0:40 0
So, 09.05. 0:30 0
So, 09.05. 0:00 0
Sa, 08.05. 23:30 0
Sa, 08.05. 23:00 0
Sa, 08.05. 22:30 0
Link zu dieser Seite / Seite empfehlen

Das Wetter in ...